sensor_id;sensor_type;location;lat;lon;timestamp;P1;durP1;ratioP1;P2;durP2;ratioP2
57233;SDS011;43090;52.604;13.318;2024-03-02T00:00:06;88.63;;;36.85;;
57233;SDS011;43090;52.604;13.318;2024-03-02T00:02:41;87.35;;;35.10;;
57233;SDS011;43090;52.604;13.318;2024-03-02T00:05:15;82.55;;;35.53;;
57233;SDS011;43090;52.604;13.318;2024-03-02T00:07:43;82.68;;;35.80;;
57233;SDS011;43090;52.604;13.318;2024-03-02T00:10:14;81.70;;;34.33;;
57233;SDS011;43090;52.604;13.318;2024-03-02T00:12:46;88.82;;;36.40;;
57233;SDS011;43090;52.604;13.318;2024-03-02T00:17:56;72.55;;;35.05;;
57233;SDS011;43090;52.604;13.318;2024-03-02T00:20:24;72.97;;;35.05;;
57233;SDS011;43090;52.604;13.318;2024-03-02T00:22:56;79.53;;;34.65;;
57233;SDS011;43090;52.604;13.318;2024-03-02T00:25:35;76.60;;;33.15;;
57233;SDS011;43090;52.604;13.318;2024-03-02T00:28:11;77.75;;;35.33;;
57233;SDS011;43090;52.604;13.318;2024-03-02T00:33:34;78.10;;;34.00;;
57233;SDS011;43090;52.604;13.318;2024-03-02T00:36:03;85.63;;;35.28;;
57233;SDS011;43090;52.604;13.318;2024-03-02T00:38:30;79.55;;;35.85;;
57233;SDS011;43090;52.604;13.318;2024-03-02T00:41:04;87.35;;;34.63;;
57233;SDS011;43090;52.604;13.318;2024-03-02T00:43:43;81.30;;;36.83;;
57233;SDS011;43090;52.604;13.318;2024-03-02T00:46:18;88.13;;;38.05;;
57233;SDS011;43090;52.604;13.318;2024-03-02T00:48:48;80.00;;;36.22;;
57233;SDS011;43090;52.604;13.318;2024-03-02T00:51:21;78.28;;;36.17;;
57233;SDS011;43090;52.604;13.318;2024-03-02T00:53:52;89.30;;;39.15;;
57233;SDS011;43090;52.604;13.318;2024-03-02T00:56:23;93.20;;;38.92;;
57233;SDS011;43090;52.604;13.318;2024-03-02T00:58:51;86.30;;;39.30;;
57233;SDS011;43090;52.604;13.318;2024-03-02T01:01:18;92.68;;;39.45;;
57233;SDS011;43090;52.604;13.318;2024-03-02T01:03:49;91.30;;;37.33;;
57233;SDS011;43090;52.604;13.318;2024-03-02T01:06:16;89.78;;;37.53;;
57233;SDS011;43090;52.604;13.318;2024-03-02T01:08:43;87.63;;;36.05;;
57233;SDS011;43090;52.604;13.318;2024-03-02T01:13:36;78.95;;;34.17;;
57233;SDS011;43090;52.604;13.318;2024-03-02T01:16:03;85.88;;;36.05;;
57233;SDS011;43090;52.604;13.318;2024-03-02T01:18:30;75.72;;;35.03;;
57233;SDS011;43090;52.604;13.318;2024-03-02T01:20:57;81.85;;;37.03;;
57233;SDS011;43090;52.604;13.318;2024-03-02T01:23:24;88.75;;;36.72;;
57233;SDS011;43090;52.604;13.318;2024-03-02T01:25:51;84.13;;;38.47;;
57233;SDS011;43090;52.604;13.318;2024-03-02T01:28:18;96.80;;;38.42;;
57233;SDS011;43090;52.604;13.318;2024-03-02T01:30:47;93.95;;;37.03;;
57233;SDS011;43090;52.604;13.318;2024-03-02T01:33:14;87.97;;;36.10;;
57233;SDS011;43090;52.604;13.318;2024-03-02T01:35:41;77.32;;;35.00;;
57233;SDS011;43090;52.604;13.318;2024-03-02T01:38:08;77.35;;;36.05;;
57233;SDS011;43090;52.604;13.318;2024-03-02T01:40:34;87.07;;;37.08;;
57233;SDS011;43090;52.604;13.318;2024-03-02T01:43:02;94.45;;;39.17;;
57233;SDS011;43090;52.604;13.318;2024-03-02T01:45:29;81.47;;;36.80;;
57233;SDS011;43090;52.604;13.318;2024-03-02T01:50:26;88.78;;;36.15;;
57233;SDS011;43090;52.604;13.318;2024-03-02T01:52:55;85.35;;;38.40;;
57233;SDS011;43090;52.604;13.318;2024-03-02T01:55:22;82.95;;;36.80;;
57233;SDS011;43090;52.604;13.318;2024-03-02T01:57:49;89.35;;;36.85;;
57233;SDS011;43090;52.604;13.318;2024-03-02T02:00:20;84.78;;;37.58;;
57233;SDS011;43090;52.604;13.318;2024-03-02T02:02:47;89.93;;;38.38;;
57233;SDS011;43090;52.604;13.318;2024-03-02T02:05:14;83.40;;;38.67;;
57233;SDS011;43090;52.604;13.318;2024-03-02T02:07:41;86.07;;;38.58;;
57233;SDS011;43090;52.604;13.318;2024-03-02T02:10:09;89.03;;;38.08;;
57233;SDS011;43090;52.604;13.318;2024-03-02T02:12:36;84.55;;;38.95;;
57233;SDS011;43090;52.604;13.318;2024-03-02T02:15:04;83.93;;;35.33;;
57233;SDS011;43090;52.604;13.318;2024-03-02T02:17:47;86.78;;;37.13;;
57233;SDS011;43090;52.604;13.318;2024-03-02T02:20:14;87.95;;;37.28;;
57233;SDS011;43090;52.604;13.318;2024-03-02T02:22:40;83.47;;;38.25;;
57233;SDS011;43090;52.604;13.318;2024-03-02T02:25:18;82.47;;;37.65;;
57233;SDS011;43090;52.604;13.318;2024-03-02T02:27:44;77.03;;;35.85;;
57233;SDS011;43090;52.604;13.318;2024-03-02T02:30:11;77.25;;;36.60;;
57233;SDS011;43090;52.604;13.318;2024-03-02T02:47:07;76.70;;;34.45;;
57233;SDS011;43090;52.604;13.318;2024-03-02T02:49:34;74.47;;;36.47;;
57233;SDS011;43090;52.604;13.318;2024-03-02T02:52:00;83.47;;;37.80;;
57233;SDS011;43090;52.604;13.318;2024-03-02T02:54:27;85.60;;;36.40;;
57233;SDS011;43090;52.604;13.318;2024-03-02T02:56:53;79.15;;;36.42;;
57233;SDS011;43090;52.604;13.318;2024-03-02T02:59:20;83.18;;;37.95;;
57233;SDS011;43090;52.604;13.318;2024-03-02T03:01:46;79.75;;;38.42;;
57233;SDS011;43090;52.604;13.318;2024-03-02T03:04:13;93.28;;;37.65;;
57233;SDS011;43090;52.604;13.318;2024-03-02T03:06:39;93.78;;;40.97;;
57233;SDS011;43090;52.604;13.318;2024-03-02T03:09:06;76.20;;;36.25;;
57233;SDS011;43090;52.604;13.318;2024-03-02T03:11:33;89.93;;;39.25;;
57233;SDS011;43090;52.604;13.318;2024-03-02T03:13:59;87.95;;;39.33;;
57233;SDS011;43090;52.604;13.318;2024-03-02T03:16:27;79.57;;;37.05;;
57233;SDS011;43090;52.604;13.318;2024-03-02T03:21:20;87.05;;;37.30;;
57233;SDS011;43090;52.604;13.318;2024-03-02T03:23:47;78.90;;;36.60;;
57233;SDS011;43090;52.604;13.318;2024-03-02T03:26:14;91.85;;;39.10;;
57233;SDS011;43090;52.604;13.318;2024-03-02T03:28:40;83.55;;;38.17;;
57233;SDS011;43090;52.604;13.318;2024-03-02T03:31:07;90.20;;;38.33;;
57233;SDS011;43090;52.604;13.318;2024-03-02T03:33:33;84.72;;;39.15;;
57233;SDS011;43090;52.604;13.318;2024-03-02T03:36:00;80.13;;;38.63;;
57233;SDS011;43090;52.604;13.318;2024-03-02T03:38:29;92.85;;;43.63;;
57233;SDS011;43090;52.604;13.318;2024-03-02T03:40:56;96.93;;;43.45;;
57233;SDS011;43090;52.604;13.318;2024-03-02T03:45:49;89.38;;;39.58;;
57233;SDS011;43090;52.604;13.318;2024-03-02T03:50:42;91.53;;;39.55;;
57233;SDS011;43090;52.604;13.318;2024-03-02T03:53:09;94.60;;;40.80;;
57233;SDS011;43090;52.604;13.318;2024-03-02T03:55:35;105.93;;;44.88;;
57233;SDS011;43090;52.604;13.318;2024-03-02T03:58:02;93.47;;;44.10;;
57233;SDS011;43090;52.604;13.318;2024-03-02T04:00:29;104.97;;;47.60;;
57233;SDS011;43090;52.604;13.318;2024-03-02T04:02:55;102.78;;;46.80;;
57233;SDS011;43090;52.604;13.318;2024-03-02T04:05:22;103.55;;;46.10;;
57233;SDS011;43090;52.604;13.318;2024-03-02T04:07:49;103.07;;;44.83;;
57233;SDS011;43090;52.604;13.318;2024-03-02T04:10:15;94.88;;;44.03;;
57233;SDS011;43090;52.604;13.318;2024-03-02T04:12:43;103.45;;;44.00;;
57233;SDS011;43090;52.604;13.318;2024-03-02T04:15:09;86.30;;;41.92;;
57233;SDS011;43090;52.604;13.318;2024-03-02T04:17:36;103.63;;;44.05;;
57233;SDS011;43090;52.604;13.318;2024-03-02T04:20:03;112.00;;;50.03;;
57233;SDS011;43090;52.604;13.318;2024-03-02T04:22:32;108.05;;;49.45;;
57233;SDS011;43090;52.604;13.318;2024-03-02T04:25:00;112.20;;;47.13;;
57233;SDS011;43090;52.604;13.318;2024-03-02T04:27:27;109.18;;;48.22;;
57233;SDS011;43090;52.604;13.318;2024-03-02T04:29:53;107.40;;;46.60;;
57233;SDS011;43090;52.604;13.318;2024-03-02T04:32:20;98.85;;;46.05;;
57233;SDS011;43090;52.604;13.318;2024-03-02T04:34:47;100.85;;;44.13;;
57233;SDS011;43090;52.604;13.318;2024-03-02T04:37:13;97.80;;;43.50;;
57233;SDS011;43090;52.604;13.318;2024-03-02T04:39:40;105.00;;;48.58;;
57233;SDS011;43090;52.604;13.318;2024-03-02T04:44:34;101.20;;;44.33;;
57233;SDS011;43090;52.604;13.318;2024-03-02T04:47:00;91.25;;;43.83;;
57233;SDS011;43090;52.604;13.318;2024-03-02T04:49:27;104.80;;;43.78;;
57233;SDS011;43090;52.604;13.318;2024-03-02T04:51:53;89.55;;;40.05;;
57233;SDS011;43090;52.604;13.318;2024-03-02T04:54:20;110.18;;;45.03;;
57233;SDS011;43090;52.604;13.318;2024-03-02T04:56:47;95.82;;;43.10;;
57233;SDS011;43090;52.604;13.318;2024-03-02T04:59:17;95.53;;;42.92;;
57233;SDS011;43090;52.604;13.318;2024-03-02T05:01:44;95.32;;;43.63;;
57233;SDS011;43090;52.604;13.318;2024-03-02T05:04:11;93.65;;;43.17;;
57233;SDS011;43090;52.604;13.318;2024-03-02T05:06:38;93.53;;;42.38;;
57233;SDS011;43090;52.604;13.318;2024-03-02T05:09:08;85.20;;;42.13;;
57233;SDS011;43090;52.604;13.318;2024-03-02T05:11:35;86.85;;;40.97;;
57233;SDS011;43090;52.604;13.318;2024-03-02T05:14:05;92.47;;;42.75;;
57233;SDS011;43090;52.604;13.318;2024-03-02T05:16:33;89.60;;;40.58;;
57233;SDS011;43090;52.604;13.318;2024-03-02T05:19:00;92.07;;;41.50;;
57233;SDS011;43090;52.604;13.318;2024-03-02T05:23:53;94.88;;;45.78;;
57233;SDS011;43090;52.604;13.318;2024-03-02T05:26:21;87.95;;;42.50;;
57233;SDS011;43090;52.604;13.318;2024-03-02T05:28:48;86.70;;;42.30;;
57233;SDS011;43090;52.604;13.318;2024-03-02T05:31:14;84.18;;;39.33;;
57233;SDS011;43090;52.604;13.318;2024-03-02T05:33:41;95.88;;;43.85;;
57233;SDS011;43090;52.604;13.318;2024-03-02T05:36:11;105.30;;;44.97;;
57233;SDS011;43090;52.604;13.318;2024-03-02T05:38:37;118.22;;;48.58;;
57233;SDS011;43090;52.604;13.318;2024-03-02T05:41:04;90.22;;;41.30;;
57233;SDS011;43090;52.604;13.318;2024-03-02T05:43:31;93.13;;;43.92;;
57233;SDS011;43090;52.604;13.318;2024-03-02T05:45:57;103.85;;;45.22;;
57233;SDS011;43090;52.604;13.318;2024-03-02T05:48:24;113.78;;;51.00;;
57233;SDS011;43090;52.604;13.318;2024-03-02T05:50:50;127.85;;;53.50;;
57233;SDS011;43090;52.604;13.318;2024-03-02T05:53:17;112.63;;;51.47;;
57233;SDS011;43090;52.604;13.318;2024-03-02T05:55:43;100.97;;;45.53;;
57233;SDS011;43090;52.604;13.318;2024-03-02T05:58:11;99.30;;;43.85;;
57233;SDS011;43090;52.604;13.318;2024-03-02T06:00:52;114.40;;;49.20;;
57233;SDS011;43090;52.604;13.318;2024-03-02T06:03:19;130.85;;;54.40;;
57233;SDS011;43090;52.604;13.318;2024-03-02T06:08:12;123.88;;;51.30;;
57233;SDS011;43090;52.604;13.318;2024-03-02T06:10:38;104.90;;;46.97;;
57233;SDS011;43090;52.604;13.318;2024-03-02T06:13:06;111.75;;;49.15;;
57233;SDS011;43090;52.604;13.318;2024-03-02T06:15:33;117.30;;;49.67;;
57233;SDS011;43090;52.604;13.318;2024-03-02T06:18:02;106.43;;;47.28;;
57233;SDS011;43090;52.604;13.318;2024-03-02T06:20:29;113.00;;;51.63;;
57233;SDS011;43090;52.604;13.318;2024-03-02T06:23:01;103.03;;;47.10;;
57233;SDS011;43090;52.604;13.318;2024-03-02T06:25:30;109.78;;;49.05;;
57233;SDS011;43090;52.604;13.318;2024-03-02T06:27:56;114.88;;;47.60;;
57233;SDS011;43090;52.604;13.318;2024-03-02T06:30:23;112.13;;;49.17;;
57233;SDS011;43090;52.604;13.318;2024-03-02T06:32:50;113.95;;;49.13;;
57233;SDS011;43090;52.604;13.318;2024-03-02T06:35:16;123.80;;;50.65;;
57233;SDS011;43090;52.604;13.318;2024-03-02T06:37:43;109.43;;;50.33;;
57233;SDS011;43090;52.604;13.318;2024-03-02T06:40:09;125.15;;;52.00;;
57233;SDS011;43090;52.604;13.318;2024-03-02T06:45:03;98.72;;;46.22;;
57233;SDS011;43090;52.604;13.318;2024-03-02T06:47:31;120.88;;;50.33;;
57233;SDS011;43090;52.604;13.318;2024-03-02T06:49:57;121.45;;;51.40;;
57233;SDS011;43090;52.604;13.318;2024-03-02T06:52:27;110.05;;;48.13;;
57233;SDS011;43090;52.604;13.318;2024-03-02T06:54:54;123.43;;;51.10;;
57233;SDS011;43090;52.604;13.318;2024-03-02T06:57:20;114.75;;;49.40;;
57233;SDS011;43090;52.604;13.318;2024-03-02T06:59:47;113.22;;;48.53;;
57233;SDS011;43090;52.604;13.318;2024-03-02T07:02:16;123.40;;;50.72;;
57233;SDS011;43090;52.604;13.318;2024-03-02T07:04:43;102.90;;;44.95;;
57233;SDS011;43090;52.604;13.318;2024-03-02T07:07:11;100.78;;;45.65;;
57233;SDS011;43090;52.604;13.318;2024-03-02T07:09:39;102.97;;;45.47;;
57233;SDS011;43090;52.604;13.318;2024-03-02T07:12:06;105.30;;;44.63;;
57233;SDS011;43090;52.604;13.318;2024-03-02T07:14:33;101.65;;;43.47;;
57233;SDS011;43090;52.604;13.318;2024-03-02T07:17:19;90.60;;;42.80;;
57233;SDS011;43090;52.604;13.318;2024-03-02T07:19:45;105.80;;;42.60;;
57233;SDS011;43090;52.604;13.318;2024-03-02T07:22:13;98.00;;;44.30;;
57233;SDS011;43090;52.604;13.318;2024-03-02T07:27:07;101.18;;;42.17;;
57233;SDS011;43090;52.604;13.318;2024-03-02T07:29:35;104.68;;;43.55;;
57233;SDS011;43090;52.604;13.318;2024-03-02T07:32:02;116.38;;;49.60;;
57233;SDS011;43090;52.604;13.318;2024-03-02T07:34:29;128.82;;;51.30;;
57233;SDS011;43090;52.604;13.318;2024-03-02T07:36:55;117.60;;;49.28;;
57233;SDS011;43090;52.604;13.318;2024-03-02T07:41:48;110.60;;;46.40;;
57233;SDS011;43090;52.604;13.318;2024-03-02T07:46:46;111.93;;;48.75;;
57233;SDS011;43090;52.604;13.318;2024-03-02T07:49:13;108.10;;;47.80;;
57233;SDS011;43090;52.604;13.318;2024-03-02T07:51:42;117.43;;;49.20;;
57233;SDS011;43090;52.604;13.318;2024-03-02T07:54:09;113.57;;;50.67;;
57233;SDS011;43090;52.604;13.318;2024-03-02T07:56:36;129.93;;;54.38;;
57233;SDS011;43090;52.604;13.318;2024-03-02T07:59:06;123.30;;;52.40;;
57233;SDS011;43090;52.604;13.318;2024-03-02T08:01:33;119.18;;;52.08;;
57233;SDS011;43090;52.604;13.318;2024-03-02T08:04:01;118.82;;;50.22;;
57233;SDS011;43090;52.604;13.318;2024-03-02T08:06:30;115.95;;;50.30;;
57233;SDS011;43090;52.604;13.318;2024-03-02T08:08:57;113.75;;;49.35;;
57233;SDS011;43090;52.604;13.318;2024-03-02T08:11:24;114.93;;;49.88;;
57233;SDS011;43090;52.604;13.318;2024-03-02T08:13:51;130.82;;;50.83;;
57233;SDS011;43090;52.604;13.318;2024-03-02T08:16:18;118.15;;;48.83;;
57233;SDS011;43090;52.604;13.318;2024-03-02T08:18:48;117.20;;;48.80;;
57233;SDS011;43090;52.604;13.318;2024-03-02T08:21:15;118.93;;;50.35;;
57233;SDS011;43090;52.604;13.318;2024-03-02T08:23:42;119.45;;;48.65;;
57233;SDS011;43090;52.604;13.318;2024-03-02T08:26:10;107.00;;;49.00;;
57233;SDS011;43090;52.604;13.318;2024-03-02T08:28:38;111.40;;;49.00;;
57233;SDS011;43090;52.604;13.318;2024-03-02T08:31:06;114.68;;;48.83;;
57233;SDS011;43090;52.604;13.318;2024-03-02T08:33:34;116.03;;;48.90;;
57233;SDS011;43090;52.604;13.318;2024-03-02T08:36:04;101.28;;;47.58;;
57233;SDS011;43090;52.604;13.318;2024-03-02T08:38:30;113.43;;;47.55;;
57233;SDS011;43090;52.604;13.318;2024-03-02T08:40:57;114.35;;;46.17;;
57233;SDS011;43090;52.604;13.318;2024-03-02T08:43:23;109.38;;;48.70;;
57233;SDS011;43090;52.604;13.318;2024-03-02T08:45:51;106.60;;;45.08;;
57233;SDS011;43090;52.604;13.318;2024-03-02T08:48:17;105.07;;;44.33;;
57233;SDS011;43090;52.604;13.318;2024-03-02T08:50:44;107.93;;;45.05;;
57233;SDS011;43090;52.604;13.318;2024-03-02T08:53:18;100.18;;;45.72;;
57233;SDS011;43090;52.604;13.318;2024-03-02T08:55:45;89.45;;;43.42;;
57233;SDS011;43090;52.604;13.318;2024-03-02T08:58:12;100.47;;;44.88;;
57233;SDS011;43090;52.604;13.318;2024-03-02T09:00:39;100.35;;;45.53;;
57233;SDS011;43090;52.604;13.318;2024-03-02T09:03:07;103.32;;;46.00;;
57233;SDS011;43090;52.604;13.318;2024-03-02T09:08:00;103.32;;;45.13;;
57233;SDS011;43090;52.604;13.318;2024-03-02T09:10:26;101.03;;;46.25;;
57233;SDS011;43090;52.604;13.318;2024-03-02T09:12:54;106.43;;;44.15;;
57233;SDS011;43090;52.604;13.318;2024-03-02T09:15:20;110.90;;;47.17;;
57233;SDS011;43090;52.604;13.318;2024-03-02T09:17:47;110.32;;;47.42;;
57233;SDS011;43090;52.604;13.318;2024-03-02T09:22:40;92.93;;;43.10;;
57233;SDS011;43090;52.604;13.318;2024-03-02T09:25:07;108.30;;;43.30;;
57233;SDS011;43090;52.604;13.318;2024-03-02T09:27:38;97.43;;;44.00;;
57233;SDS011;43090;52.604;13.318;2024-03-02T09:30:39;95.53;;;42.28;;
57233;SDS011;43090;52.604;13.318;2024-03-02T09:32:58;93.53;;;42.80;;
57233;SDS011;43090;52.604;13.318;2024-03-02T09:35:28;94.43;;;43.47;;
57233;SDS011;43090;52.604;13.318;2024-03-02T09:37:55;99.72;;;42.22;;
57233;SDS011;43090;52.604;13.318;2024-03-02T09:40:22;94.50;;;43.65;;
57233;SDS011;43090;52.604;13.318;2024-03-02T09:42:49;98.57;;;44.45;;
57233;SDS011;43090;52.604;13.318;2024-03-02T09:45:22;104.35;;;44.08;;
57233;SDS011;43090;52.604;13.318;2024-03-02T09:47:50;110.25;;;42.88;;
57233;SDS011;43090;52.604;13.318;2024-03-02T09:50:17;99.88;;;40.63;;
57233;SDS011;43090;52.604;13.318;2024-03-02T09:52:47;90.95;;;39.15;;
57233;SDS011;43090;52.604;13.318;2024-03-02T09:55:15;90.00;;;39.35;;
57233;SDS011;43090;52.604;13.318;2024-03-02T09:57:43;88.68;;;40.60;;
57233;SDS011;43090;52.604;13.318;2024-03-02T10:00:10;87.95;;;38.78;;
57233;SDS011;43090;52.604;13.318;2024-03-02T10:02:41;80.80;;;37.15;;
57233;SDS011;43090;52.604;13.318;2024-03-02T10:05:09;81.68;;;36.42;;
57233;SDS011;43090;52.604;13.318;2024-03-02T10:07:35;76.43;;;37.38;;
57233;SDS011;43090;52.604;13.318;2024-03-02T10:10:14;84.93;;;37.50;;
57233;SDS011;43090;52.604;13.318;2024-03-02T10:12:42;72.55;;;35.05;;
57233;SDS011;43090;52.604;13.318;2024-03-02T10:15:09;81.90;;;34.55;;
57233;SDS011;43090;52.604;13.318;2024-03-02T10:17:36;76.60;;;35.35;;
57233;SDS011;43090;52.604;13.318;2024-03-02T10:22:49;77.63;;;34.20;;
57233;SDS011;43090;52.604;13.318;2024-03-02T10:25:32;80.45;;;35.40;;
57233;SDS011;43090;52.604;13.318;2024-03-02T10:28:16;66.40;;;33.92;;
57233;SDS011;43090;52.604;13.318;2024-03-02T10:30:47;72.03;;;33.88;;
57233;SDS011;43090;52.604;13.318;2024-03-02T10:33:14;69.30;;;33.05;;
57233;SDS011;43090;52.604;13.318;2024-03-02T10:38:07;69.63;;;32.42;;
57233;SDS011;43090;52.604;13.318;2024-03-02T10:40:39;73.15;;;31.67;;
57233;SDS011;43090;52.604;13.318;2024-03-02T10:43:05;64.13;;;31.15;;
57233;SDS011;43090;52.604;13.318;2024-03-02T10:45:37;69.40;;;32.40;;
57233;SDS011;43090;52.604;13.318;2024-03-02T10:48:03;64.63;;;30.77;;
57233;SDS011;43090;52.604;13.318;2024-03-02T10:50:31;57.28;;;28.98;;
57233;SDS011;43090;52.604;13.318;2024-03-02T10:55:25;63.40;;;29.08;;
57233;SDS011;43090;52.604;13.318;2024-03-02T11:00:26;59.08;;;28.10;;
57233;SDS011;43090;52.604;13.318;2024-03-02T11:03:06;53.55;;;26.00;;
57233;SDS011;43090;52.604;13.318;2024-03-02T11:05:39;51.65;;;25.92;;
57233;SDS011;43090;52.604;13.318;2024-03-02T11:08:13;59.90;;;27.30;;
57233;SDS011;43090;52.604;13.318;2024-03-02T11:10:45;54.10;;;26.33;;
57233;SDS011;43090;52.604;13.318;2024-03-02T11:13:32;46.50;;;24.52;;
57233;SDS011;43090;52.604;13.318;2024-03-02T11:16:05;52.70;;;25.58;;
57233;SDS011;43090;52.604;13.318;2024-03-02T11:18:37;51.25;;;25.42;;
57233;SDS011;43090;52.604;13.318;2024-03-02T11:21:09;46.15;;;23.67;;
57233;SDS011;43090;52.604;13.318;2024-03-02T11:23:39;51.25;;;24.50;;
57233;SDS011;43090;52.604;13.318;2024-03-02T11:28:49;57.70;;;26.70;;
57233;SDS011;43090;52.604;13.318;2024-03-02T11:31:18;46.40;;;24.23;;
57233;SDS011;43090;52.604;13.318;2024-03-02T11:33:45;52.58;;;24.48;;
57233;SDS011;43090;52.604;13.318;2024-03-02T11:36:12;52.53;;;25.25;;
57233;SDS011;43090;52.604;13.318;2024-03-02T11:38:39;45.47;;;22.42;;
57233;SDS011;43090;52.604;13.318;2024-03-02T11:41:13;46.00;;;23.40;;
57233;SDS011;43090;52.604;13.318;2024-03-02T11:43:41;40.50;;;23.23;;
57233;SDS011;43090;52.604;13.318;2024-03-02T11:46:10;42.83;;;21.88;;
57233;SDS011;43090;52.604;13.318;2024-03-02T11:48:39;46.05;;;21.75;;
57233;SDS011;43090;52.604;13.318;2024-03-02T11:51:15;48.20;;;23.13;;
57233;SDS011;43090;52.604;13.318;2024-03-02T11:54:19;50.30;;;22.70;;
57233;SDS011;43090;52.604;13.318;2024-03-02T11:57:07;46.33;;;22.33;;
57233;SDS011;43090;52.604;13.318;2024-03-02T12:04:04;40.67;;;20.23;;
57233;SDS011;43090;52.604;13.318;2024-03-02T12:06:55;38.95;;;20.55;;
57233;SDS011;43090;52.604;13.318;2024-03-02T12:09:32;38.80;;;20.55;;
57233;SDS011;43090;52.604;13.318;2024-03-02T12:12:03;41.38;;;20.23;;
57233;SDS011;43090;52.604;13.318;2024-03-02T12:14:52;41.20;;;21.17;;
57233;SDS011;43090;52.604;13.318;2024-03-02T12:17:25;39.88;;;19.95;;
57233;SDS011;43090;52.604;13.318;2024-03-02T12:19:58;36.10;;;18.63;;
57233;SDS011;43090;52.604;13.318;2024-03-02T12:22:24;43.08;;;19.98;;
57233;SDS011;43090;52.604;13.318;2024-03-02T12:24:51;40.88;;;20.02;;
57233;SDS011;43090;52.604;13.318;2024-03-02T12:27:18;38.78;;;18.35;;
57233;SDS011;43090;52.604;13.318;2024-03-02T12:29:47;41.70;;;19.55;;
57233;SDS011;43090;52.604;13.318;2024-03-02T12:32:17;41.30;;;20.02;;
57233;SDS011;43090;52.604;13.318;2024-03-02T12:34:46;41.67;;;19.88;;
57233;SDS011;43090;52.604;13.318;2024-03-02T12:37:13;33.47;;;18.42;;
57233;SDS011;43090;52.604;13.318;2024-03-02T12:39:40;36.65;;;18.35;;
57233;SDS011;43090;52.604;13.318;2024-03-02T12:42:17;38.78;;;18.50;;
57233;SDS011;43090;52.604;13.318;2024-03-02T12:44:58;30.10;;;16.67;;
57233;SDS011;43090;52.604;13.318;2024-03-02T12:47:27;33.75;;;17.73;;
57233;SDS011;43090;52.604;13.318;2024-03-02T12:49:59;34.15;;;17.25;;
57233;SDS011;43090;52.604;13.318;2024-03-02T12:52:26;35.85;;;17.67;;
57233;SDS011;43090;52.604;13.318;2024-03-02T12:55:04;35.75;;;18.08;;
57233;SDS011;43090;52.604;13.318;2024-03-02T12:57:39;34.70;;;17.60;;
57233;SDS011;43090;52.604;13.318;2024-03-02T13:00:17;34.05;;;18.10;;
57233;SDS011;43090;52.604;13.318;2024-03-02T13:02:58;33.38;;;17.80;;
57233;SDS011;43090;52.604;13.318;2024-03-02T13:05:42;35.03;;;17.35;;
57233;SDS011;43090;52.604;13.318;2024-03-02T13:08:14;35.72;;;15.68;;
57233;SDS011;43090;52.604;13.318;2024-03-02T13:10:43;39.85;;;17.17;;
57233;SDS011;43090;52.604;13.318;2024-03-02T13:13:13;37.20;;;18.85;;
57233;SDS011;43090;52.604;13.318;2024-03-02T13:15:44;41.33;;;19.50;;
57233;SDS011;43090;52.604;13.318;2024-03-02T13:20:38;37.53;;;18.00;;
57233;SDS011;43090;52.604;13.318;2024-03-02T13:23:06;33.83;;;16.33;;
57233;SDS011;43090;52.604;13.318;2024-03-02T13:25:32;29.40;;;16.15;;
57233;SDS011;43090;52.604;13.318;2024-03-02T13:28:00;28.95;;;15.98;;
57233;SDS011;43090;52.604;13.318;2024-03-02T13:30:27;27.38;;;14.82;;
57233;SDS011;43090;52.604;13.318;2024-03-02T13:35:20;37.78;;;19.75;;
57233;SDS011;43090;52.604;13.318;2024-03-02T13:37:48;34.28;;;17.35;;
57233;SDS011;43090;52.604;13.318;2024-03-02T13:40:16;38.70;;;16.25;;
57233;SDS011;43090;52.604;13.318;2024-03-02T13:42:46;36.30;;;15.50;;
57233;SDS011;43090;52.604;13.318;2024-03-02T13:47:40;36.33;;;17.85;;
57233;SDS011;43090;52.604;13.318;2024-03-02T13:50:06;33.25;;;16.52;;
57233;SDS011;43090;52.604;13.318;2024-03-02T13:52:33;30.35;;;16.50;;
57233;SDS011;43090;52.604;13.318;2024-03-02T13:55:00;32.30;;;15.70;;
57233;SDS011;43090;52.604;13.318;2024-03-02T13:57:26;29.27;;;16.08;;
57233;SDS011;43090;52.604;13.318;2024-03-02T13:59:53;31.08;;;15.60;;
57233;SDS011;43090;52.604;13.318;2024-03-02T14:02:21;30.20;;;15.05;;
57233;SDS011;43090;52.604;13.318;2024-03-02T14:04:48;32.47;;;15.27;;
57233;SDS011;43090;52.604;13.318;2024-03-02T14:07:17;29.20;;;14.50;;
57233;SDS011;43090;52.604;13.318;2024-03-02T14:09:44;35.08;;;15.52;;
57233;SDS011;43090;52.604;13.318;2024-03-02T14:12:11;30.58;;;13.88;;
57233;SDS011;43090;52.604;13.318;2024-03-02T14:14:39;20.33;;;11.05;;
57233;SDS011;43090;52.604;13.318;2024-03-02T14:17:06;23.63;;;12.32;;
57233;SDS011;43090;52.604;13.318;2024-03-02T14:19:36;25.95;;;13.77;;
57233;SDS011;43090;52.604;13.318;2024-03-02T14:22:03;29.10;;;13.15;;
57233;SDS011;43090;52.604;13.318;2024-03-02T14:24:32;25.75;;;13.68;;
57233;SDS011;43090;52.604;13.318;2024-03-02T14:26:58;21.83;;;12.38;;
57233;SDS011;43090;52.604;13.318;2024-03-02T14:29:45;22.55;;;11.23;;
57233;SDS011;43090;52.604;13.318;2024-03-02T14:32:11;17.88;;;9.77;;
57233;SDS011;43090;52.604;13.318;2024-03-02T14:34:38;20.30;;;10.15;;
57233;SDS011;43090;52.604;13.318;2024-03-02T14:37:05;21.45;;;10.50;;
57233;SDS011;43090;52.604;13.318;2024-03-02T14:39:32;21.30;;;10.57;;
57233;SDS011;43090;52.604;13.318;2024-03-02T14:42:01;17.35;;;9.45;;
57233;SDS011;43090;52.604;13.318;2024-03-02T14:46:54;19.95;;;8.13;;
57233;SDS011;43090;52.604;13.318;2024-03-02T14:49:21;25.88;;;9.57;;
57233;SDS011;43090;52.604;13.318;2024-03-02T14:51:47;16.48;;;8.45;;
57233;SDS011;43090;52.604;13.318;2024-03-02T14:54:15;18.52;;;8.68;;
57233;SDS011;43090;52.604;13.318;2024-03-02T14:56:42;19.05;;;9.95;;
57233;SDS011;43090;52.604;13.318;2024-03-02T14:59:09;16.40;;;8.63;;
57233;SDS011;43090;52.604;13.318;2024-03-02T15:01:36;19.95;;;8.77;;
57233;SDS011;43090;52.604;13.318;2024-03-02T15:04:04;22.10;;;8.93;;
57233;SDS011;43090;52.604;13.318;2024-03-02T15:06:31;17.83;;;8.95;;
57233;SDS011;43090;52.604;13.318;2024-03-02T15:08:57;18.88;;;8.77;;
57233;SDS011;43090;52.604;13.318;2024-03-02T15:11:24;16.38;;;8.60;;
57233;SDS011;43090;52.604;13.318;2024-03-02T15:13:51;17.80;;;8.48;;
57233;SDS011;43090;52.604;13.318;2024-03-02T15:16:18;18.35;;;9.63;;
57233;SDS011;43090;52.604;13.318;2024-03-02T15:18:44;19.67;;;10.05;;
57233;SDS011;43090;52.604;13.318;2024-03-02T15:21:12;21.20;;;9.77;;
57233;SDS011;43090;52.604;13.318;2024-03-02T15:23:39;20.10;;;9.75;;
57233;SDS011;43090;52.604;13.318;2024-03-02T15:26:05;21.95;;;10.05;;
57233;SDS011;43090;52.604;13.318;2024-03-02T15:28:34;19.73;;;10.95;;
57233;SDS011;43090;52.604;13.318;2024-03-02T15:31:01;25.38;;;11.00;;
57233;SDS011;43090;52.604;13.318;2024-03-02T15:35:58;31.20;;;11.90;;
57233;SDS011;43090;52.604;13.318;2024-03-02T15:38:26;23.42;;;12.15;;